sensor_id;sensor_type;location;lat;lon;timestamp;P1;durP1;ratioP1;P2;durP2;ratioP2
49824;SDS011;35714;55.708;37.478;2022-12-20T18:11:21;10.30;;;4.80;;
49824;SDS011;35714;55.708;37.478;2022-12-20T18:13:49;11.90;;;5.30;;
49824;SDS011;35714;55.708;37.478;2022-12-20T18:16:18;14.90;;;5.60;;
49824;SDS011;35714;55.708;37.478;2022-12-20T18:18:46;13.13;;;4.32;;
49824;SDS011;35714;55.708;37.478;2022-12-20T18:21:13;10.38;;;4.32;;
49824;SDS011;35714;55.708;37.478;2022-12-20T18:23:41;12.13;;;5.65;;
49824;SDS011;35714;55.708;37.478;2022-12-20T18:26:12;11.48;;;5.00;;
49824;SDS011;35714;55.708;37.478;2022-12-20T18:28:41;11.00;;;4.85;;
49824;SDS011;35714;55.708;37.478;2022-12-20T18:31:08;9.80;;;4.22;;
49824;SDS011;35714;55.708;37.478;2022-12-20T18:33:35;11.77;;;5.03;;
49824;SDS011;35714;55.708;37.478;2022-12-20T18:36:03;11.30;;;4.68;;
49824;SDS011;35714;55.708;37.478;2022-12-20T18:38:34;12.88;;;5.68;;
49824;SDS011;35714;55.708;37.478;2022-12-20T18:41:02;10.57;;;5.53;;
49824;SDS011;35714;55.708;37.478;2022-12-20T18:43:30;15.73;;;6.30;;
49824;SDS011;35714;55.708;37.478;2022-12-20T18:46:07;18.45;;;6.75;;
49824;SDS011;35714;55.708;37.478;2022-12-20T18:48:34;17.17;;;6.68;;
49824;SDS011;35714;55.708;37.478;2022-12-20T18:51:04;11.82;;;4.57;;
49824;SDS011;35714;55.708;37.478;2022-12-20T18:53:31;20.40;;;8.20;;
49824;SDS011;35714;55.708;37.478;2022-12-20T18:56:01;14.40;;;7.00;;
49824;SDS011;35714;55.708;37.478;2022-12-20T18:58:32;17.95;;;6.88;;
49824;SDS011;35714;55.708;37.478;2022-12-20T19:00:58;19.25;;;8.23;;
49824;SDS011;35714;55.708;37.478;2022-12-20T19:03:27;19.95;;;7.72;;
49824;SDS011;35714;55.708;37.478;2022-12-20T19:05:54;16.73;;;6.50;;
49824;SDS011;35714;55.708;37.478;2022-12-20T19:08:23;13.48;;;6.05;;
49824;SDS011;35714;55.708;37.478;2022-12-20T19:10:50;13.20;;;6.50;;
49824;SDS011;35714;55.708;37.478;2022-12-20T19:13:16;20.00;;;7.60;;
49824;SDS011;35714;55.708;37.478;2022-12-20T19:15:43;17.30;;;7.03;;
49824;SDS011;35714;55.708;37.478;2022-12-20T19:18:10;20.42;;;6.90;;
49824;SDS011;35714;55.708;37.478;2022-12-20T19:20:36;20.65;;;7.97;;
49824;SDS011;35714;55.708;37.478;2022-12-20T19:23:03;16.75;;;5.72;;
49824;SDS011;35714;55.708;37.478;2022-12-20T19:25:32;16.92;;;7.07;;
49824;SDS011;35714;55.708;37.478;2022-12-20T19:28:00;20.92;;;8.20;;
49824;SDS011;35714;55.708;37.478;2022-12-20T19:30:26;19.35;;;7.15;;
49824;SDS011;35714;55.708;37.478;2022-12-20T19:32:53;19.63;;;7.35;;
49824;SDS011;35714;55.708;37.478;2022-12-20T19:35:20;14.93;;;6.95;;
49824;SDS011;35714;55.708;37.478;2022-12-20T19:37:52;17.40;;;6.45;;
49824;SDS011;35714;55.708;37.478;2022-12-20T19:40:23;15.32;;;6.53;;
49824;SDS011;35714;55.708;37.478;2022-12-20T19:42:49;13.70;;;5.95;;
49824;SDS011;35714;55.708;37.478;2022-12-20T19:45:15;17.75;;;7.40;;
49824;SDS011;35714;55.708;37.478;2022-12-20T19:47:40;16.45;;;5.53;;
49824;SDS011;35714;55.708;37.478;2022-12-20T19:50:06;19.52;;;7.68;;
49824;SDS011;35714;55.708;37.478;2022-12-20T19:52:33;19.42;;;7.20;;
49824;SDS011;35714;55.708;37.478;2022-12-20T19:54:59;16.52;;;7.22;;
49824;SDS011;35714;55.708;37.478;2022-12-20T19:57:25;19.40;;;8.15;;
49824;SDS011;35714;55.708;37.478;2022-12-20T19:59:50;17.05;;;7.00;;
49824;SDS011;35714;55.708;37.478;2022-12-20T20:02:16;16.85;;;6.53;;
49824;SDS011;35714;55.708;37.478;2022-12-20T20:04:42;15.15;;;7.18;;
49824;SDS011;35714;55.708;37.478;2022-12-20T20:07:07;16.92;;;6.78;;
49824;SDS011;35714;55.708;37.478;2022-12-20T20:09:33;16.58;;;7.28;;
49824;SDS011;35714;55.708;37.478;2022-12-20T20:11:59;17.42;;;7.18;;
49824;SDS011;35714;55.708;37.478;2022-12-20T20:14:25;16.38;;;7.00;;
49824;SDS011;35714;55.708;37.478;2022-12-20T20:16:51;14.18;;;6.43;;
49824;SDS011;35714;55.708;37.478;2022-12-20T20:19:17;12.27;;;6.40;;
49824;SDS011;35714;55.708;37.478;2022-12-20T20:21:43;18.20;;;7.90;;
49824;SDS011;35714;55.708;37.478;2022-12-20T20:24:09;18.63;;;7.13;;
49824;SDS011;35714;55.708;37.478;2022-12-20T20:26:35;17.80;;;8.40;;
49824;SDS011;35714;55.708;37.478;2022-12-20T20:29:02;14.02;;;6.32;;
49824;SDS011;35714;55.708;37.478;2022-12-20T20:31:28;16.88;;;6.35;;
49824;SDS011;35714;55.708;37.478;2022-12-20T20:33:56;17.25;;;6.43;;
49824;SDS011;35714;55.708;37.478;2022-12-20T20:36:22;16.85;;;6.93;;
49824;SDS011;35714;55.708;37.478;2022-12-20T20:38:48;21.00;;;8.00;;
49824;SDS011;35714;55.708;37.478;2022-12-20T20:41:16;22.30;;;8.48;;
49824;SDS011;35714;55.708;37.478;2022-12-20T20:43:42;18.02;;;7.53;;
49824;SDS011;35714;55.708;37.478;2022-12-20T20:46:09;14.95;;;6.80;;
49824;SDS011;35714;55.708;37.478;2022-12-20T20:48:36;15.52;;;7.43;;
49824;SDS011;35714;55.708;37.478;2022-12-20T20:51:03;19.23;;;8.38;;
49824;SDS011;35714;55.708;37.478;2022-12-20T20:53:29;18.40;;;8.23;;
49824;SDS011;35714;55.708;37.478;2022-12-20T20:55:55;16.67;;;7.57;;
49824;SDS011;35714;55.708;37.478;2022-12-20T20:58:22;17.88;;;7.40;;
49824;SDS011;35714;55.708;37.478;2022-12-20T21:00:50;19.10;;;7.38;;
49824;SDS011;35714;55.708;37.478;2022-12-20T21:03:16;15.02;;;7.32;;
49824;SDS011;35714;55.708;37.478;2022-12-20T21:05:43;16.58;;;6.45;;
49824;SDS011;35714;55.708;37.478;2022-12-20T21:08:09;12.93;;;6.60;;
49824;SDS011;35714;55.708;37.478;2022-12-20T21:10:35;19.27;;;8.95;;
49824;SDS011;35714;55.708;37.478;2022-12-20T21:13:01;20.17;;;9.55;;
49824;SDS011;35714;55.708;37.478;2022-12-20T21:15:27;14.77;;;7.90;;
49824;SDS011;35714;55.708;37.478;2022-12-20T21:17:53;14.50;;;7.43;;
49824;SDS011;35714;55.708;37.478;2022-12-20T21:20:19;14.50;;;7.45;;
49824;SDS011;35714;55.708;37.478;2022-12-20T21:22:46;18.27;;;7.78;;
49824;SDS011;35714;55.708;37.478;2022-12-20T21:25:11;18.23;;;9.07;;
49824;SDS011;35714;55.708;37.478;2022-12-20T21:27:38;17.92;;;8.52;;
49824;SDS011;35714;55.708;37.478;2022-12-20T21:30:05;17.52;;;7.97;;
49824;SDS011;35714;55.708;37.478;2022-12-20T21:32:31;22.42;;;7.63;;
49824;SDS011;35714;55.708;37.478;2022-12-20T21:34:57;17.55;;;8.18;;
49824;SDS011;35714;55.708;37.478;2022-12-20T21:37:24;19.88;;;7.93;;
49824;SDS011;35714;55.708;37.478;2022-12-20T21:39:50;18.88;;;8.82;;
49824;SDS011;35714;55.708;37.478;2022-12-20T21:42:15;16.63;;;8.30;;
49824;SDS011;35714;55.708;37.478;2022-12-20T21:44:42;16.85;;;8.30;;
49824;SDS011;35714;55.708;37.478;2022-12-20T21:47:08;19.58;;;8.52;;
49824;SDS011;35714;55.708;37.478;2022-12-20T21:49:33;19.70;;;8.18;;
49824;SDS011;35714;55.708;37.478;2022-12-20T21:51:59;17.25;;;7.97;;
49824;SDS011;35714;55.708;37.478;2022-12-20T21:54:25;16.73;;;8.18;;
49824;SDS011;35714;55.708;37.478;2022-12-20T21:56:50;22.13;;;8.55;;
49824;SDS011;35714;55.708;37.478;2022-12-20T21:59:16;15.07;;;7.68;;
49824;SDS011;35714;55.708;37.478;2022-12-20T22:01:42;20.48;;;8.23;;
49824;SDS011;35714;55.708;37.478;2022-12-20T22:04:09;21.30;;;8.43;;
49824;SDS011;35714;55.708;37.478;2022-12-20T22:06:36;16.10;;;7.43;;
49824;SDS011;35714;55.708;37.478;2022-12-20T22:09:02;20.02;;;9.02;;
49824;SDS011;35714;55.708;37.478;2022-12-20T22:11:32;16.63;;;7.75;;
49824;SDS011;35714;55.708;37.478;2022-12-20T22:13:59;23.40;;;8.52;;
49824;SDS011;35714;55.708;37.478;2022-12-20T22:16:26;16.15;;;7.28;;
49824;SDS011;35714;55.708;37.478;2022-12-20T22:18:54;18.15;;;8.63;;
49824;SDS011;35714;55.708;37.478;2022-12-20T22:21:23;22.10;;;8.88;;
49824;SDS011;35714;55.708;37.478;2022-12-20T22:23:52;21.90;;;8.60;;
49824;SDS011;35714;55.708;37.478;2022-12-20T22:26:19;18.05;;;7.75;;
49824;SDS011;35714;55.708;37.478;2022-12-20T22:28:50;16.52;;;7.45;;
49824;SDS011;35714;55.708;37.478;2022-12-20T22:31:18;20.73;;;8.95;;
49824;SDS011;35714;55.708;37.478;2022-12-20T22:33:44;16.45;;;7.35;;
49824;SDS011;35714;55.708;37.478;2022-12-20T22:36:11;14.90;;;7.05;;
49824;SDS011;35714;55.708;37.478;2022-12-20T22:38:38;17.52;;;6.45;;
49824;SDS011;35714;55.708;37.478;2022-12-20T22:41:09;20.38;;;7.53;;
49824;SDS011;35714;55.708;37.478;2022-12-20T22:43:37;15.68;;;7.50;;
49824;SDS011;35714;55.708;37.478;2022-12-20T22:46:05;15.45;;;7.38;;
49824;SDS011;35714;55.708;37.478;2022-12-20T22:48:32;16.67;;;7.47;;
49824;SDS011;35714;55.708;37.478;2022-12-20T22:50:58;14.20;;;7.25;;
49824;SDS011;35714;55.708;37.478;2022-12-20T22:53:25;19.23;;;7.35;;
49824;SDS011;35714;55.708;37.478;2022-12-20T22:55:51;17.90;;;7.00;;
49824;SDS011;35714;55.708;37.478;2022-12-20T22:58:18;17.65;;;7.15;;
49824;SDS011;35714;55.708;37.478;2022-12-20T23:00:44;13.43;;;6.38;;
49824;SDS011;35714;55.708;37.478;2022-12-20T23:03:11;13.65;;;6.68;;
49824;SDS011;35714;55.708;37.478;2022-12-20T23:05:36;17.38;;;6.70;;
49824;SDS011;35714;55.708;37.478;2022-12-20T23:08:02;19.58;;;7.75;;
49824;SDS011;35714;55.708;37.478;2022-12-20T23:10:28;15.65;;;6.45;;
49824;SDS011;35714;55.708;37.478;2022-12-20T23:13:13;17.45;;;7.07;;
49824;SDS011;35714;55.708;37.478;2022-12-20T23:15:57;13.98;;;6.90;;
49824;SDS011;35714;55.708;37.478;2022-12-20T23:18:23;16.00;;;6.95;;
49824;SDS011;35714;55.708;37.478;2022-12-20T23:20:49;15.45;;;7.03;;
49824;SDS011;35714;55.708;37.478;2022-12-20T23:23:34;17.15;;;6.63;;
49824;SDS011;35714;55.708;37.478;2022-12-20T23:26:09;17.23;;;7.95;;
49824;SDS011;35714;55.708;37.478;2022-12-20T23:28:36;16.08;;;7.18;;
49824;SDS011;35714;55.708;37.478;2022-12-20T23:31:06;15.80;;;6.80;;
49824;SDS011;35714;55.708;37.478;2022-12-20T23:33:32;18.02;;;7.05;;
49824;SDS011;35714;55.708;37.478;2022-12-20T23:35:59;15.57;;;6.47;;
49824;SDS011;35714;55.708;37.478;2022-12-20T23:38:26;15.07;;;6.63;;
49824;SDS011;35714;55.708;37.478;2022-12-20T23:40:56;17.50;;;7.53;;
49824;SDS011;35714;55.708;37.478;2022-12-20T23:43:21;16.95;;;7.38;;
49824;SDS011;35714;55.708;37.478;2022-12-20T23:45:47;13.02;;;6.18;;
49824;SDS011;35714;55.708;37.478;2022-12-20T23:48:13;13.43;;;6.88;;
49824;SDS011;35714;55.708;37.478;2022-12-20T23:50:39;17.27;;;7.43;;
49824;SDS011;35714;55.708;37.478;2022-12-20T23:53:05;13.43;;;6.85;;
49824;SDS011;35714;55.708;37.478;2022-12-20T23:55:30;14.57;;;6.72;;
49824;SDS011;35714;55.708;37.478;2022-12-20T23:57:56;12.95;;;6.47;;
